sensor_id;sensor_type;location;lat;lon;timestamp;P1;durP1;ratioP1;P2;durP2;ratioP2
43560;SDS011;32305;46.410;17.394;2023-04-03T00:00:09;1.17;;;1.00;;
43560;SDS011;32305;46.410;17.394;2023-04-03T00:02:37;0.57;;;0.57;;
43560;SDS011;32305;46.410;17.394;2023-04-03T00:05:04;1.15;;;0.70;;
43560;SDS011;32305;46.410;17.394;2023-04-03T00:07:31;0.80;;;0.80;;
43560;SDS011;32305;46.410;17.394;2023-04-03T00:09:58;0.60;;;0.60;;
43560;SDS011;32305;46.410;17.394;2023-04-03T00:12:25;0.63;;;0.63;;
43560;SDS011;32305;46.410;17.394;2023-04-03T00:14:56;0.70;;;0.70;;
43560;SDS011;32305;46.410;17.394;2023-04-03T00:17:23;0.70;;;0.70;;
43560;SDS011;32305;46.410;17.394;2023-04-03T00:19:50;0.50;;;0.50;;
43560;SDS011;32305;46.410;17.394;2023-04-03T00:22:17;0.70;;;0.70;;
43560;SDS011;32305;46.410;17.394;2023-04-03T00:24:44;0.82;;;0.82;;
43560;SDS011;32305;46.410;17.394;2023-04-03T00:27:11;0.65;;;0.65;;
43560;SDS011;32305;46.410;17.394;2023-04-03T00:29:38;0.80;;;0.80;;
43560;SDS011;32305;46.410;17.394;2023-04-03T00:32:05;0.70;;;0.70;;
43560;SDS011;32305;46.410;17.394;2023-04-03T00:34:32;0.60;;;0.60;;
43560;SDS011;32305;46.410;17.394;2023-04-03T00:36:59;0.60;;;0.60;;
43560;SDS011;32305;46.410;17.394;2023-04-03T00:39:26;0.60;;;0.60;;
43560;SDS011;32305;46.410;17.394;2023-04-03T00:41:53;0.70;;;0.70;;
43560;SDS011;32305;46.410;17.394;2023-04-03T00:44:22;0.90;;;0.90;;
43560;SDS011;32305;46.410;17.394;2023-04-03T00:47:11;0.60;;;0.60;;
43560;SDS011;32305;46.410;17.394;2023-04-03T00:49:39;0.85;;;0.85;;
43560;SDS011;32305;46.410;17.394;2023-04-03T00:52:09;0.80;;;0.80;;
43560;SDS011;32305;46.410;17.394;2023-04-03T00:54:42;0.63;;;0.63;;
43560;SDS011;32305;46.410;17.394;2023-04-03T00:57:12;0.60;;;0.60;;
43560;SDS011;32305;46.410;17.394;2023-04-03T00:59:41;0.82;;;0.82;;
43560;SDS011;32305;46.410;17.394;2023-04-03T01:02:11;0.82;;;0.82;;
43560;SDS011;32305;46.410;17.394;2023-04-03T01:04:39;0.63;;;0.60;;
43560;SDS011;32305;46.410;17.394;2023-04-03T01:07:16;0.85;;;0.80;;
43560;SDS011;32305;46.410;17.394;2023-04-03T01:09:48;0.80;;;0.80;;
43560;SDS011;32305;46.410;17.394;2023-04-03T01:12:22;1.00;;;0.90;;
43560;SDS011;32305;46.410;17.394;2023-04-03T01:14:52;1.30;;;0.82;;
43560;SDS011;32305;46.410;17.394;2023-04-03T01:17:29;0.77;;;0.77;;
43560;SDS011;32305;46.410;17.394;2023-04-03T01:23:15;0.68;;;0.68;;
43560;SDS011;32305;46.410;17.394;2023-04-03T01:25:55;0.73;;;0.73;;
43560;SDS011;32305;46.410;17.394;2023-04-03T01:28:25;0.77;;;0.77;;
43560;SDS011;32305;46.410;17.394;2023-04-03T01:33:57;0.75;;;0.70;;
43560;SDS011;32305;46.410;17.394;2023-04-03T01:36:27;0.82;;;0.82;;
43560;SDS011;32305;46.410;17.394;2023-04-03T01:38:57;0.60;;;0.60;;
43560;SDS011;32305;46.410;17.394;2023-04-03T01:41:26;0.60;;;0.60;;
43560;SDS011;32305;46.410;17.394;2023-04-03T01:43:54;0.60;;;0.60;;
43560;SDS011;32305;46.410;17.394;2023-04-03T01:46:21;0.73;;;0.73;;
43560;SDS011;32305;46.410;17.394;2023-04-03T01:48:48;0.98;;;0.70;;
43560;SDS011;32305;46.410;17.394;2023-04-03T01:51:16;0.60;;;0.60;;
43560;SDS011;32305;46.410;17.394;2023-04-03T01:53:43;0.70;;;0.70;;
43560;SDS011;32305;46.410;17.394;2023-04-03T01:56:10;0.63;;;0.60;;
43560;SDS011;32305;46.410;17.394;2023-04-03T01:58:37;0.70;;;0.70;;
43560;SDS011;32305;46.410;17.394;2023-04-03T02:01:05;0.45;;;0.45;;
43560;SDS011;32305;46.410;17.394;2023-04-03T02:03:33;0.52;;;0.52;;
43560;SDS011;32305;46.410;17.394;2023-04-03T02:06:00;0.30;;;0.30;;
43560;SDS011;32305;46.410;17.394;2023-04-03T02:08:27;0.70;;;0.70;;
43560;SDS011;32305;46.410;17.394;2023-04-03T02:10:54;0.65;;;0.60;;
43560;SDS011;32305;46.410;17.394;2023-04-03T02:13:21;0.60;;;0.60;;
43560;SDS011;32305;46.410;17.394;2023-04-03T02:15:49;0.47;;;0.40;;
43560;SDS011;32305;46.410;17.394;2023-04-03T02:18:16;0.50;;;0.50;;
43560;SDS011;32305;46.410;17.394;2023-04-03T02:20:43;0.77;;;0.77;;
43560;SDS011;32305;46.410;17.394;2023-04-03T02:23:10;0.55;;;0.55;;
43560;SDS011;32305;46.410;17.394;2023-04-03T02:25:37;0.60;;;0.60;;
43560;SDS011;32305;46.410;17.394;2023-04-03T02:28:05;0.50;;;0.50;;
43560;SDS011;32305;46.410;17.394;2023-04-03T02:30:32;0.60;;;0.60;;
43560;SDS011;32305;46.410;17.394;2023-04-03T02:33:00;0.65;;;0.60;;
43560;SDS011;32305;46.410;17.394;2023-04-03T02:35:27;0.60;;;0.60;;
43560;SDS011;32305;46.410;17.394;2023-04-03T02:37:54;0.75;;;0.60;;
43560;SDS011;32305;46.410;17.394;2023-04-03T02:40:22;0.75;;;0.75;;
43560;SDS011;32305;46.410;17.394;2023-04-03T02:42:49;0.50;;;0.50;;
43560;SDS011;32305;46.410;17.394;2023-04-03T02:45:16;0.60;;;0.60;;
43560;SDS011;32305;46.410;17.394;2023-04-03T02:47:43;0.45;;;0.45;;
43560;SDS011;32305;46.410;17.394;2023-04-03T02:50:10;0.45;;;0.45;;
43560;SDS011;32305;46.410;17.394;2023-04-03T02:52:37;0.73;;;0.73;;
43560;SDS011;32305;46.410;17.394;2023-04-03T02:55:04;0.60;;;0.60;;
43560;SDS011;32305;46.410;17.394;2023-04-03T02:57:32;0.50;;;0.50;;
43560;SDS011;32305;46.410;17.394;2023-04-03T02:59:59;0.90;;;0.57;;
43560;SDS011;32305;46.410;17.394;2023-04-03T03:02:26;0.52;;;0.50;;
43560;SDS011;32305;46.410;17.394;2023-04-03T03:04:53;0.90;;;0.70;;
43560;SDS011;32305;46.410;17.394;2023-04-03T03:07:20;0.50;;;0.50;;
43560;SDS011;32305;46.410;17.394;2023-04-03T03:09:49;0.50;;;0.50;;
43560;SDS011;32305;46.410;17.394;2023-04-03T03:12:16;1.40;;;0.80;;
43560;SDS011;32305;46.410;17.394;2023-04-03T03:14:48;0.68;;;0.68;;
43560;SDS011;32305;46.410;17.394;2023-04-03T03:17:15;1.23;;;0.60;;
43560;SDS011;32305;46.410;17.394;2023-04-03T03:19:42;0.65;;;0.65;;
43560;SDS011;32305;46.410;17.394;2023-04-03T03:22:10;0.50;;;0.50;;
43560;SDS011;32305;46.410;17.394;2023-04-03T03:24:37;0.50;;;0.50;;
43560;SDS011;32305;46.410;17.394;2023-04-03T03:27:04;0.50;;;0.50;;
43560;SDS011;32305;46.410;17.394;2023-04-03T03:29:31;0.32;;;0.32;;
43560;SDS011;32305;46.410;17.394;2023-04-03T03:31:58;0.63;;;0.57;;
43560;SDS011;32305;46.410;17.394;2023-04-03T03:34:26;0.50;;;0.50;;
43560;SDS011;32305;46.410;17.394;2023-04-03T03:36:53;0.45;;;0.45;;
43560;SDS011;32305;46.410;17.394;2023-04-03T03:39:20;0.40;;;0.32;;
43560;SDS011;32305;46.410;17.394;2023-04-03T03:41:47;0.52;;;0.52;;
43560;SDS011;32305;46.410;17.394;2023-04-03T03:44:16;0.52;;;0.50;;
43560;SDS011;32305;46.410;17.394;2023-04-03T03:46:43;0.55;;;0.52;;
43560;SDS011;32305;46.410;17.394;2023-04-03T03:49:10;0.40;;;0.40;;
43560;SDS011;32305;46.410;17.394;2023-04-03T03:51:38;0.50;;;0.50;;
43560;SDS011;32305;46.410;17.394;2023-04-03T03:54:05;0.60;;;0.60;;
43560;SDS011;32305;46.410;17.394;2023-04-03T03:56:33;0.43;;;0.43;;
43560;SDS011;32305;46.410;17.394;2023-04-03T03:59:00;0.73;;;0.70;;
43560;SDS011;32305;46.410;17.394;2023-04-03T04:01:27;0.50;;;0.50;;
43560;SDS011;32305;46.410;17.394;2023-04-03T04:03:55;1.58;;;0.50;;
43560;SDS011;32305;46.410;17.394;2023-04-03T04:06:22;0.40;;;0.40;;
43560;SDS011;32305;46.410;17.394;2023-04-03T04:08:49;0.40;;;0.38;;
43560;SDS011;32305;46.410;17.394;2023-04-03T04:11:16;0.40;;;0.40;;
43560;SDS011;32305;46.410;17.394;2023-04-03T04:13:43;1.20;;;0.50;;
43560;SDS011;32305;46.410;17.394;2023-04-03T04:16:11;0.68;;;0.68;;
43560;SDS011;32305;46.410;17.394;2023-04-03T04:18:38;0.47;;;0.47;;
43560;SDS011;32305;46.410;17.394;2023-04-03T04:21:05;0.63;;;0.63;;
43560;SDS011;32305;46.410;17.394;2023-04-03T04:23:32;0.82;;;0.38;;
43560;SDS011;32305;46.410;17.394;2023-04-03T04:25:59;0.30;;;0.30;;
43560;SDS011;32305;46.410;17.394;2023-04-03T04:28:26;0.32;;;0.32;;
43560;SDS011;32305;46.410;17.394;2023-04-03T04:30:53;0.40;;;0.40;;
43560;SDS011;32305;46.410;17.394;2023-04-03T04:33:20;0.90;;;0.43;;
43560;SDS011;32305;46.410;17.394;2023-04-03T04:35:47;0.47;;;0.47;;
43560;SDS011;32305;46.410;17.394;2023-04-03T04:38:15;0.55;;;0.55;;
43560;SDS011;32305;46.410;17.394;2023-04-03T04:40:42;0.50;;;0.50;;
43560;SDS011;32305;46.410;17.394;2023-04-03T04:43:09;0.50;;;0.50;;
43560;SDS011;32305;46.410;17.394;2023-04-03T04:45:41;0.75;;;0.70;;
43560;SDS011;32305;46.410;17.394;2023-04-03T04:48:08;0.68;;;0.60;;
43560;SDS011;32305;46.410;17.394;2023-04-03T04:50:35;0.73;;;0.70;;
43560;SDS011;32305;46.410;17.394;2023-04-03T04:53:02;0.70;;;0.52;;
43560;SDS011;32305;46.410;17.394;2023-04-03T04:55:30;0.52;;;0.52;;
43560;SDS011;32305;46.410;17.394;2023-04-03T04:57:57;0.70;;;0.70;;
43560;SDS011;32305;46.410;17.394;2023-04-03T05:00:24;0.73;;;0.63;;
43560;SDS011;32305;46.410;17.394;2023-04-03T05:02:52;0.50;;;0.50;;
43560;SDS011;32305;46.410;17.394;2023-04-03T05:05:19;0.50;;;0.50;;
43560;SDS011;32305;46.410;17.394;2023-04-03T05:07:46;0.60;;;0.60;;
43560;SDS011;32305;46.410;17.394;2023-04-03T05:10:13;0.60;;;0.60;;
43560;SDS011;32305;46.410;17.394;2023-04-03T05:12:40;0.75;;;0.70;;
43560;SDS011;32305;46.410;17.394;2023-04-03T05:15:07;0.73;;;0.73;;
43560;SDS011;32305;46.410;17.394;2023-04-03T05:17:35;0.57;;;0.55;;
43560;SDS011;32305;46.410;17.394;2023-04-03T05:20:02;2.53;;;0.70;;
43560;SDS011;32305;46.410;17.394;2023-04-03T05:22:33;2.40;;;1.23;;
43560;SDS011;32305;46.410;17.394;2023-04-03T05:25:00;1.00;;;0.85;;
43560;SDS011;32305;46.410;17.394;2023-04-03T05:27:27;4.30;;;1.13;;
43560;SDS011;32305;46.410;17.394;2023-04-03T05:29:56;0.60;;;0.60;;
43560;SDS011;32305;46.410;17.394;2023-04-03T05:32:23;0.88;;;0.88;;
43560;SDS011;32305;46.410;17.394;2023-04-03T05:34:52;1.08;;;0.80;;
43560;SDS011;32305;46.410;17.394;2023-04-03T05:37:19;0.80;;;0.80;;
43560;SDS011;32305;46.410;17.394;2023-04-03T05:39:47;1.63;;;1.08;;
43560;SDS011;32305;46.410;17.394;2023-04-03T05:42:15;1.17;;;0.85;;
43560;SDS011;32305;46.410;17.394;2023-04-03T05:44:43;3.55;;;1.15;;
43560;SDS011;32305;46.410;17.394;2023-04-03T05:47:12;2.53;;;0.87;;
43560;SDS011;32305;46.410;17.394;2023-04-03T05:49:39;1.42;;;0.80;;
43560;SDS011;32305;46.410;17.394;2023-04-03T05:52:23;2.05;;;0.90;;
43560;SDS011;32305;46.410;17.394;2023-04-03T05:54:59;0.80;;;0.73;;
43560;SDS011;32305;46.410;17.394;2023-04-03T05:57:27;0.88;;;0.80;;
43560;SDS011;32305;46.410;17.394;2023-04-03T05:59:54;2.67;;;0.75;;
43560;SDS011;32305;46.410;17.394;2023-04-03T06:02:22;0.80;;;0.80;;
43560;SDS011;32305;46.410;17.394;2023-04-03T06:04:50;0.65;;;0.60;;
43560;SDS011;32305;46.410;17.394;2023-04-03T06:07:19;1.95;;;1.05;;
43560;SDS011;32305;46.410;17.394;2023-04-03T06:09:50;2.80;;;1.00;;
43560;SDS011;32305;46.410;17.394;2023-04-03T06:12:17;1.95;;;1.00;;
43560;SDS011;32305;46.410;17.394;2023-04-03T06:14:45;0.85;;;0.85;;
43560;SDS011;32305;46.410;17.394;2023-04-03T06:17:13;1.77;;;0.77;;
43560;SDS011;32305;46.410;17.394;2023-04-03T06:19:41;2.38;;;0.75;;
43560;SDS011;32305;46.410;17.394;2023-04-03T06:22:08;0.95;;;0.80;;
43560;SDS011;32305;46.410;17.394;2023-04-03T06:24:36;1.08;;;0.98;;
43560;SDS011;32305;46.410;17.394;2023-04-03T06:27:04;1.30;;;1.20;;
43560;SDS011;32305;46.410;17.394;2023-04-03T06:29:31;0.80;;;0.80;;
43560;SDS011;32305;46.410;17.394;2023-04-03T06:31:58;1.75;;;0.82;;
43560;SDS011;32305;46.410;17.394;2023-04-03T06:34:25;1.17;;;0.90;;
43560;SDS011;32305;46.410;17.394;2023-04-03T06:36:53;2.50;;;0.93;;
43560;SDS011;32305;46.410;17.394;2023-04-03T06:39:21;0.73;;;0.70;;
43560;SDS011;32305;46.410;17.394;2023-04-03T06:41:49;1.02;;;0.93;;
43560;SDS011;32305;46.410;17.394;2023-04-03T06:44:17;1.98;;;1.00;;
43560;SDS011;32305;46.410;17.394;2023-04-03T06:46:44;3.30;;;0.80;;
43560;SDS011;32305;46.410;17.394;2023-04-03T06:49:13;1.40;;;0.80;;
43560;SDS011;32305;46.410;17.394;2023-04-03T06:51:41;1.75;;;0.80;;
43560;SDS011;32305;46.410;17.394;2023-04-03T06:54:08;0.88;;;0.80;;
43560;SDS011;32305;46.410;17.394;2023-04-03T06:56:36;1.30;;;0.90;;
43560;SDS011;32305;46.410;17.394;2023-04-03T06:59:03;1.60;;;1.02;;
43560;SDS011;32305;46.410;17.394;2023-04-03T07:01:31;1.55;;;1.00;;
43560;SDS011;32305;46.410;17.394;2023-04-03T07:03:58;4.35;;;0.90;;
43560;SDS011;32305;46.410;17.394;2023-04-03T07:06:26;1.80;;;1.08;;
43560;SDS011;32305;46.410;17.394;2023-04-03T07:08:53;16.75;;;1.75;;
43560;SDS011;32305;46.410;17.394;2023-04-03T07:11:21;61.28;;;3.88;;
43560;SDS011;32305;46.410;17.394;2023-04-03T07:13:49;36.30;;;3.35;;
43560;SDS011;32305;46.410;17.394;2023-04-03T07:16:17;23.63;;;2.55;;
43560;SDS011;32305;46.410;17.394;2023-04-03T07:18:45;36.00;;;2.88;;
43560;SDS011;32305;46.410;17.394;2023-04-03T07:21:12;33.13;;;2.33;;
43560;SDS011;32305;46.410;17.394;2023-04-03T07:23:40;23.05;;;2.28;;
43560;SDS011;32305;46.410;17.394;2023-04-03T07:26:07;15.98;;;1.90;;
43560;SDS011;32305;46.410;17.394;2023-04-03T07:28:35;18.27;;;1.90;;
43560;SDS011;32305;46.410;17.394;2023-04-03T07:31:04;7.20;;;1.65;;
43560;SDS011;32305;46.410;17.394;2023-04-03T07:33:35;15.60;;;1.70;;
43560;SDS011;32305;46.410;17.394;2023-04-03T07:36:04;9.35;;;1.10;;
43560;SDS011;32305;46.410;17.394;2023-04-03T07:38:33;10.23;;;1.85;;
43560;SDS011;32305;46.410;17.394;2023-04-03T07:41:02;3.25;;;1.83;;
43560;SDS011;32305;46.410;17.394;2023-04-03T07:43:30;3.38;;;1.27;;
43560;SDS011;32305;46.410;17.394;2023-04-03T07:45:57;3.22;;;1.50;;
43560;SDS011;32305;46.410;17.394;2023-04-03T07:48:25;2.92;;;1.40;;
43560;SDS011;32305;46.410;17.394;2023-04-03T07:50:52;1.20;;;1.10;;
43560;SDS011;32305;46.410;17.394;2023-04-03T07:53:19;3.92;;;1.20;;
43560;SDS011;32305;46.410;17.394;2023-04-03T07:55:47;2.50;;;1.33;;
43560;SDS011;32305;46.410;17.394;2023-04-03T07:58:16;2.53;;;1.30;;
43560;SDS011;32305;46.410;17.394;2023-04-03T08:00:45;2.77;;;1.57;;
43560;SDS011;32305;46.410;17.394;2023-04-03T08:03:12;2.33;;;1.60;;
43560;SDS011;32305;46.410;17.394;2023-04-03T08:05:41;3.75;;;1.20;;
43560;SDS011;32305;46.410;17.394;2023-04-03T08:08:10;1.65;;;1.40;;
43560;SDS011;32305;46.410;17.394;2023-04-03T08:10:39;5.78;;;1.77;;
43560;SDS011;32305;46.410;17.394;2023-04-03T08:13:06;1.95;;;1.20;;
43560;SDS011;32305;46.410;17.394;2023-04-03T08:15:35;3.10;;;1.13;;
43560;SDS011;32305;46.410;17.394;2023-04-03T08:18:03;2.53;;;1.20;;
43560;SDS011;32305;46.410;17.394;2023-04-03T08:20:31;4.32;;;1.45;;
43560;SDS011;32305;46.410;17.394;2023-04-03T08:22:58;1.98;;;1.30;;
43560;SDS011;32305;46.410;17.394;2023-04-03T08:25:25;1.40;;;1.30;;
43560;SDS011;32305;46.410;17.394;2023-04-03T08:27:52;1.75;;;1.17;;
43560;SDS011;32305;46.410;17.394;2023-04-03T08:30:19;1.20;;;1.08;;
43560;SDS011;32305;46.410;17.394;2023-04-03T08:32:47;3.88;;;1.50;;
43560;SDS011;32305;46.410;17.394;2023-04-03T08:35:14;1.30;;;1.00;;
43560;SDS011;32305;46.410;17.394;2023-04-03T08:37:41;3.72;;;1.40;;
43560;SDS011;32305;46.410;17.394;2023-04-03T08:40:12;1.02;;;1.02;;
43560;SDS011;32305;46.410;17.394;2023-04-03T08:42:49;3.63;;;1.40;;
43560;SDS011;32305;46.410;17.394;2023-04-03T08:45:45;3.55;;;1.27;;
43560;SDS011;32305;46.410;17.394;2023-04-03T08:48:29;2.72;;;1.40;;
43560;SDS011;32305;46.410;17.394;2023-04-03T08:51:10;1.63;;;1.40;;
43560;SDS011;32305;46.410;17.394;2023-04-03T08:56:15;1.40;;;1.30;;
43560;SDS011;32305;46.410;17.394;2023-04-03T08:58:47;1.70;;;1.60;;
43560;SDS011;32305;46.410;17.394;2023-04-03T09:01:34;2.33;;;1.73;;
43560;SDS011;32305;46.410;17.394;2023-04-03T09:04:11;2.03;;;1.30;;
43560;SDS011;32305;46.410;17.394;2023-04-03T09:06:42;1.77;;;1.17;;
43560;SDS011;32305;46.410;17.394;2023-04-03T09:09:22;3.00;;;1.50;;
43560;SDS011;32305;46.410;17.394;2023-04-03T09:12:09;1.50;;;1.40;;
43560;SDS011;32305;46.410;17.394;2023-04-03T09:15:01;1.48;;;1.30;;
43560;SDS011;32305;46.410;17.394;2023-04-03T09:17:51;2.40;;;1.40;;
43560;SDS011;32305;46.410;17.394;2023-04-03T09:23:28;4.82;;;1.45;;
43560;SDS011;32305;46.410;17.394;2023-04-03T09:26:12;2.45;;;1.45;;
43560;SDS011;32305;46.410;17.394;2023-04-03T09:28:44;3.08;;;1.50;;
43560;SDS011;32305;46.410;17.394;2023-04-03T09:31:23;1.90;;;1.33;;
43560;SDS011;32305;46.410;17.394;2023-04-03T09:33:53;2.60;;;1.45;;
43560;SDS011;32305;46.410;17.394;2023-04-03T09:36:38;2.95;;;1.80;;
43560;SDS011;32305;46.410;17.394;2023-04-03T09:39:10;1.98;;;1.35;;
43560;SDS011;32305;46.410;17.394;2023-04-03T09:41:41;2.55;;;1.40;;
43560;SDS011;32305;46.410;17.394;2023-04-03T09:44:22;1.65;;;1.35;;
43560;SDS011;32305;46.410;17.394;2023-04-03T09:46:54;3.00;;;1.80;;
43560;SDS011;32305;46.410;17.394;2023-04-03T09:49:22;2.33;;;1.77;;
43560;SDS011;32305;46.410;17.394;2023-04-03T09:51:49;4.05;;;2.08;;
43560;SDS011;32305;46.410;17.394;2023-04-03T09:54:31;3.38;;;1.73;;
43560;SDS011;32305;46.410;17.394;2023-04-03T09:57:11;3.47;;;1.38;;
43560;SDS011;32305;46.410;17.394;2023-04-03T09:59:47;3.60;;;1.67;;
43560;SDS011;32305;46.410;17.394;2023-04-03T10:02:32;3.67;;;1.60;;
43560;SDS011;32305;46.410;17.394;2023-04-03T10:05:04;2.80;;;1.40;;
43560;SDS011;32305;46.410;17.394;2023-04-03T10:07:52;3.78;;;1.60;;
43560;SDS011;32305;46.410;17.394;2023-04-03T10:10:48;2.00;;;1.73;;
43560;SDS011;32305;46.410;17.394;2023-04-03T10:13:34;3.80;;;1.70;;
43560;SDS011;32305;46.410;17.394;2023-04-03T10:16:17;2.75;;;1.70;;
43560;SDS011;32305;46.410;17.394;2023-04-03T10:19:03;2.25;;;1.45;;
43560;SDS011;32305;46.410;17.394;2023-04-03T10:21:55;6.22;;;2.45;;
43560;SDS011;32305;46.410;17.394;2023-04-03T10:24:34;1.90;;;1.52;;
43560;SDS011;32305;46.410;17.394;2023-04-03T10:27:26;2.42;;;1.80;;
43560;SDS011;32305;46.410;17.394;2023-04-03T10:30:14;2.35;;;1.58;;
43560;SDS011;32305;46.410;17.394;2023-04-03T10:36:02;3.90;;;2.10;;
43560;SDS011;32305;46.410;17.394;2023-04-03T10:41:46;2.42;;;1.45;;
43560;SDS011;32305;46.410;17.394;2023-04-03T10:45:00;4.45;;;2.40;;
43560;SDS011;32305;46.410;17.394;2023-04-03T10:47:45;3.90;;;1.65;;
43560;SDS011;32305;46.410;17.394;2023-04-03T10:50:43;1.88;;;1.40;;
43560;SDS011;32305;46.410;17.394;2023-04-03T10:53:31;4.22;;;1.20;;
43560;SDS011;32305;46.410;17.394;2023-04-03T10:59:15;4.72;;;1.20;;
43560;SDS011;32305;46.410;17.394;2023-04-03T11:01:51;1.70;;;1.60;;
43560;SDS011;32305;46.410;17.394;2023-04-03T11:04:26;5.03;;;1.30;;
43560;SDS011;32305;46.410;17.394;2023-04-03T11:06:58;4.32;;;1.63;;
43560;SDS011;32305;46.410;17.394;2023-04-03T11:09:33;2.30;;;1.60;;
43560;SDS011;32305;46.410;17.394;2023-04-03T11:12:05;1.55;;;1.15;;
43560;SDS011;32305;46.410;17.394;2023-04-03T11:14:40;2.03;;;1.35;;
43560;SDS011;32305;46.410;17.394;2023-04-03T11:17:11;1.73;;;1.50;;
43560;SDS011;32305;46.410;17.394;2023-04-03T11:22:48;1.20;;;1.10;;
43560;SDS011;32305;46.410;17.394;2023-04-03T11:25:21;6.47;;;1.88;;
43560;SDS011;32305;46.410;17.394;2023-04-03T11:27:57;2.30;;;1.33;;
43560;SDS011;32305;46.410;17.394;2023-04-03T11:30:30;2.38;;;1.55;;
43560;SDS011;32305;46.410;17.394;2023-04-03T11:33:14;2.08;;;1.63;;
43560;SDS011;32305;46.410;17.394;2023-04-03T11:36:17;1.85;;;1.50;;
43560;SDS011;32305;46.410;17.394;2023-04-03T11:39:21;1.92;;;1.35;;
43560;SDS011;32305;46.410;17.394;2023-04-03T11:45:17;2.10;;;1.48;;
43560;SDS011;32305;46.410;17.394;2023-04-03T12:03:33;1.48;;;1.38;;
43560;SDS011;32305;46.410;17.394;2023-04-03T12:06:41;2.60;;;1.40;;
43560;SDS011;32305;46.410;17.394;2023-04-03T12:09:24;1.80;;;1.60;;
43560;SDS011;32305;46.410;17.394;2023-04-03T12:11:59;1.52;;;1.42;;
43560;SDS011;32305;46.410;17.394;2023-04-03T12:14:28;1.75;;;1.60;;
43560;SDS011;32305;46.410;17.394;2023-04-03T12:16:56;2.58;;;1.70;;
43560;SDS011;32305;46.410;17.394;2023-04-03T12:22:09;2.47;;;1.70;;
43560;SDS011;32305;46.410;17.394;2023-04-03T12:24:48;3.13;;;1.70;;
43560;SDS011;32305;46.410;17.394;2023-04-03T12:27:28;1.48;;;1.38;;
43560;SDS011;32305;46.410;17.394;2023-04-03T12:33:04;1.95;;;1.75;;
43560;SDS011;32305;46.410;17.394;2023-04-03T12:36:04;1.30;;;1.20;;
43560;SDS011;32305;46.410;17.394;2023-04-03T12:38:45;5.22;;;1.90;;
43560;SDS011;32305;46.410;17.394;2023-04-03T12:41:26;1.33;;;1.23;;
43560;SDS011;32305;46.410;17.394;2023-04-03T12:44:24;4.32;;;1.70;;
43560;SDS011;32305;46.410;17.394;2023-04-03T12:47:26;2.10;;;1.67;;
43560;SDS011;32305;46.410;17.394;2023-04-03T12:49:59;1.92;;;1.55;;
43560;SDS011;32305;46.410;17.394;2023-04-03T12:52:34;5.78;;;1.83;;
43560;SDS011;32305;46.410;17.394;2023-04-03T12:55:13;3.95;;;1.75;;
43560;SDS011;32305;46.410;17.394;2023-04-03T12:57:42;3.45;;;1.55;;
43560;SDS011;32305;46.410;17.394;2023-04-03T13:00:27;3.53;;;2.13;;
43560;SDS011;32305;46.410;17.394;2023-04-03T13:03:01;1.65;;;1.40;;
43560;SDS011;32305;46.410;17.394;2023-04-03T13:05:31;2.20;;;1.40;;
43560;SDS011;32305;46.410;17.394;2023-04-03T13:08:07;2.40;;;1.40;;
43560;SDS011;32305;46.410;17.394;2023-04-03T13:10:56;5.70;;;2.53;;
43560;SDS011;32305;46.410;17.394;2023-04-03T13:13:31;3.00;;;1.73;;
43560;SDS011;32305;46.410;17.394;2023-04-03T13:15:58;2.50;;;1.40;;
43560;SDS011;32305;46.410;17.394;2023-04-03T13:18:33;1.60;;;1.10;;
43560;SDS011;32305;46.410;17.394;2023-04-03T13:21:03;2.17;;;1.52;;
43560;SDS011;32305;46.410;17.394;2023-04-03T13:23:34;7.72;;;1.55;;
43560;SDS011;32305;46.410;17.394;2023-04-03T13:26:04;8.93;;;1.90;;
43560;SDS011;32305;46.410;17.394;2023-04-03T13:28:33;1.95;;;1.48;;
43560;SDS011;32305;46.410;17.394;2023-04-03T13:31:03;2.65;;;1.73;;
43560;SDS011;32305;46.410;17.394;2023-04-03T13:33:57;3.13;;;1.60;;
43560;SDS011;32305;46.410;17.394;2023-04-03T13:36:30;3.85;;;1.58;;
43560;SDS011;32305;46.410;17.394;2023-04-03T13:39:03;2.38;;;1.55;;
43560;SDS011;32305;46.410;17.394;2023-04-03T13:41:49;2.17;;;1.50;;
43560;SDS011;32305;46.410;17.394;2023-04-03T13:44:26;2.70;;;1.80;;
43560;SDS011;32305;46.410;17.394;2023-04-03T13:47:14;2.10;;;1.88;;
43560;SDS011;32305;46.410;17.394;2023-04-03T13:50:02;2.10;;;1.73;;
43560;SDS011;32305;46.410;17.394;2023-04-03T13:52:46;2.42;;;1.40;;
43560;SDS011;32305;46.410;17.394;2023-04-03T13:55:26;2.85;;;2.00;;
43560;SDS011;32305;46.410;17.394;2023-04-03T13:58:00;1.77;;;1.63;;
43560;SDS011;32305;46.410;17.394;2023-04-03T14:00:33;2.40;;;1.42;;
43560;SDS011;32305;46.410;17.394;2023-04-03T14:03:13;3.88;;;1.73;;
43560;SDS011;32305;46.410;17.394;2023-04-03T14:05:47;3.45;;;2.08;;
43560;SDS011;32305;46.410;17.394;2023-04-03T14:08:15;1.73;;;1.50;;
43560;SDS011;32305;46.410;17.394;2023-04-03T14:10:42;3.50;;;1.67;;
43560;SDS011;32305;46.410;17.394;2023-04-03T14:13:11;2.85;;;1.67;;
43560;SDS011;32305;46.410;17.394;2023-04-03T14:15:41;2.80;;;1.77;;
43560;SDS011;32305;46.410;17.394;2023-04-03T14:18:11;3.60;;;1.63;;
43560;SDS011;32305;46.410;17.394;2023-04-03T14:20:38;6.38;;;1.98;;
43560;SDS011;32305;46.410;17.394;2023-04-03T14:23:06;2.85;;;1.70;;
43560;SDS011;32305;46.410;17.394;2023-04-03T14:25:34;4.28;;;2.20;;
43560;SDS011;32305;46.410;17.394;2023-04-03T14:28:06;2.95;;;2.10;;
43560;SDS011;32305;46.410;17.394;2023-04-03T14:30:44;4.45;;;2.05;;
43560;SDS011;32305;46.410;17.394;2023-04-03T14:33:14;3.63;;;2.35;;
43560;SDS011;32305;46.410;17.394;2023-04-03T14:38:15;6.15;;;2.22;;
43560;SDS011;32305;46.410;17.394;2023-04-03T14:40:49;7.15;;;2.65;;
43560;SDS011;32305;46.410;17.394;2023-04-03T14:43:17;3.78;;;1.77;;
43560;SDS011;32305;46.410;17.394;2023-04-03T14:45:46;3.70;;;2.40;;
43560;SDS011;32305;46.410;17.394;2023-04-03T14:48:19;5.43;;;1.90;;
43560;SDS011;32305;46.410;17.394;2023-04-03T14:50:49;9.05;;;2.45;;
43560;SDS011;32305;46.410;17.394;2023-04-03T14:53:31;8.18;;;2.40;;
43560;SDS011;32305;46.410;17.394;2023-04-03T14:56:09;5.13;;;1.95;;
43560;SDS011;32305;46.410;17.394;2023-04-03T14:58:40;5.43;;;2.85;;
43560;SDS011;32305;46.410;17.394;2023-04-03T15:01:09;2.53;;;1.80;;
43560;SDS011;32305;46.410;17.394;2023-04-03T15:03:37;3.55;;;2.10;;
43560;SDS011;32305;46.410;17.394;2023-04-03T15:06:04;5.70;;;2.20;;
43560;SDS011;32305;46.410;17.394;2023-04-03T15:08:32;7.53;;;2.72;;
43560;SDS011;32305;46.410;17.394;2023-04-03T15:10:59;6.25;;;2.58;;
43560;SDS011;32305;46.410;17.394;2023-04-03T15:13:27;6.00;;;2.10;;
43560;SDS011;32305;46.410;17.394;2023-04-03T15:15:54;7.78;;;2.60;;
43560;SDS011;32305;46.410;17.394;2023-04-03T15:18:22;8.23;;;2.53;;
43560;SDS011;32305;46.410;17.394;2023-04-03T15:20:56;6.50;;;2.70;;
43560;SDS011;32305;46.410;17.394;2023-04-03T15:23:23;9.15;;;2.50;;
43560;SDS011;32305;46.410;17.394;2023-04-03T15:25:52;5.32;;;2.90;;
43560;SDS011;32305;46.410;17.394;2023-04-03T15:28:34;7.28;;;2.50;;
43560;SDS011;32305;46.410;17.394;2023-04-03T15:31:04;6.13;;;2.45;;
43560;SDS011;32305;46.410;17.394;2023-04-03T15:33:32;18.63;;;3.25;;
43560;SDS011;32305;46.410;17.394;2023-04-03T15:36:00;7.65;;;2.67;;
43560;SDS011;32305;46.410;17.394;2023-04-03T15:38:33;5.53;;;2.85;;
43560;SDS011;32305;46.410;17.394;2023-04-03T15:41:00;7.65;;;2.70;;
43560;SDS011;32305;46.410;17.394;2023-04-03T15:43:27;8.57;;;2.78;;
43560;SDS011;32305;46.410;17.394;2023-04-03T15:45:58;4.50;;;2.25;;
43560;SDS011;32305;46.410;17.394;2023-04-03T15:48:26;3.80;;;2.05;;
43560;SDS011;32305;46.410;17.394;2023-04-03T15:50:57;2.72;;;1.95;;